Rawlings, Maryland
Current Conditions -  °F | °C
As of 12:44 AM on Monday 20 Oct 2014 (Local Time) from KCBE Reporting Station
Clear Clear  
Wind Chill: 41°   Ceiling: Unl
Heat Index: 41°   Visibility: 10mi
Dew Point: 36°   Wind: 0mph
Humidity: 81%   Direction: NA
Pressure: 30.13"   Gusts: NA
Location:  39.53°N, 78.88°W
Report Text: KCBE 200444Z AUTO 00000KT 10SM CLR 05/02 A3013 RMK AO1
Loading
Personal Weather Stations






























Interactive Weather Map
Tropical Storm Tracking
New forecast layout! Learn more

10-Day Weather Forecast

Advertisements
Track Severe Weather on mobile